Wadesboro, NC

6:23 AM EDT on April 19, 2015 (GMT -0400)
Anson County | | Change Station
CLOSE
Current Station
Airport
Location: Wadesboro,
Elevation: 299 ft
Nearby Weather Stations

Elev 299 ft 35.02 °N, 80.08 °W | Updated 8 minutes ago

Overcast
Overcast
65 °F
Feels Like 65 °F
N
0
Wind Variable Wind from North

Today
High -- | Low -- °F
--% Chance of Precip.
Yesterday
High -- | Low -- °F
Precip. -- in
6:43 AM 7:55 PM
New Moon, 1% visible
Pressure 29.97 in
Visibility 10.0 miles
Clouds Mostly Cloudy 4900 ft
Overcast 6500 ft
Dew Point 64 °F
Humidity 96%
Rainfall 0.00 in
Snow Depth Not available.
UV 0 out of 12
Pollen 10.00 out of 12
Air Quality Not available.
Flu Activity Sporadic
METAR KAFP 191015Z AUTO 00000KT 10SM BKN049 OVC065 19/18 A2997 RMK AO2 T01850178

More Conditions Fewer Conditions

Pressure 29.97 in
Visibility 10.0 miles
Clouds Mostly Cloudy 4900 ft
Overcast 6500 ft
Dew Point 64 °F
Humidity 96%
Rainfall 0.00 in
Snow Depth Not available.
UV 0 out of 12
Pollen 10.00 out of 12
Air Quality Not available.
Flu Activity Sporadic
METAR KAFP 191015Z AUTO 00000KT 10SM BKN049 OVC065 19/18 A2997 RMK AO2 T01850178

More Conditions Fewer Conditions

10-Day Weather Forecast

Almanac

Astronomy

Apr. 19, 2015 Rise Set
Actual Time
Civil Twilight
Nautical Twilight
Astronomical Twilight
Moon
Length of Visible Light
Length of Day
Tomorrow will be .
, % of the Moon is Illuminated

Today's Extremes

State Highs State Lows

Community

WunderPhotos

Upload Photos

1,814,759 photos uploaded!

WunderBlogs® & News

Nearby

Air Quality

  Air Quality AQ Index Pollutant
Not available.

Snow Depth

Station Depth Elevation

Earthquake Activity

City Distance Mag. Time & Date
Minimum magnitude displayed is 2.5.

Coastal Water Temperatures

Place Temperature

Stations

Nearby Weather Stations

Station Location Temp. Windchill Dew Point Humidity Wind Precip. Elev Updated Type